Time;durP1;ratioP1;P1;durP2;ratioP2;P2;SDS_P1;SDS_P2;PMS_P1;PMS_P2;Temp;Humidity;BMP_temperature;BMP_pressure;BME280_temperature;BME280_humidity;BME280_pressure;Samples;Min_cycle;Max_cycle;Signal;HPM_P1;HPM_P2
2023/05/08 00:01:01;;;;;;;19.92;17.63;;;;;;;13.29;100.00;164040.59;5069634;28;20044;-60
2023/05/08 00:03:27;;;;;;;17.60;15.80;;;;;;;13.27;100.00;164033.84;5071575;28;20048;-59
2023/05/08 00:05:54;;;;;;;21.73;16.55;;;;;;;13.27;100.00;164033.84;5070497;28;20410;-60
2023/05/08 00:08:19;;;;;;;18.17;16.33;;;;;;;13.26;100.00;164031.16;5071561;28;20378;-60
2023/05/08 00:10:45;;;;;;;17.42;15.65;;;;;;;13.23;100.00;164024.38;5070208;28;20127;-59
2023/05/08 00:13:10;;;;;;;19.23;17.33;;;;;;;13.09;100.00;163986.53;5071748;28;20528;-59
2023/05/08 00:15:35;;;;;;;19.17;17.38;;;;;;;13.22;100.00;164021.69;5069178;28;20044;-59
2023/05/08 00:18:01;;;;;;;20.73;18.58;;;;;;;13.19;100.00;164013.59;5071552;28;20048;-59
2023/05/08 00:20:26;;;;;;;20.08;17.90;;;;;;;13.14;100.00;164001.41;5069881;28;20040;-60
2023/05/08 00:22:52;;;;;;;19.08;17.08;;;;;;;13.10;100.00;163989.25;5070880;28;20037;-59
2023/05/08 00:25:17;;;;;;;18.58;16.77;;;;;;;13.08;100.00;163985.22;5069745;28;20035;-58
2023/05/08 00:27:42;;;;;;;20.20;18.15;;;;;;;13.05;100.00;163977.06;5071124;28;20036;-58
2023/05/08 00:30:08;;;;;;;20.00;18.00;;;;;;;13.07;100.00;163981.16;5069088;28;20495;-58
2023/05/08 00:32:33;;;;;;;21.52;19.45;;;;;;;13.06;100.00;163978.47;5070956;28;20379;-58
2023/05/08 00:34:59;;;;;;;22.90;18.63;;;;;;;13.04;100.00;163973.03;5069848;28;20036;-58
2023/05/08 00:37:24;;;;;;;19.50;17.10;;;;;;;13.02;100.00;163970.31;5070580;28;20020;-58
2023/05/08 00:39:50;;;;;;;19.15;17.23;;;;;;;12.95;100.00;163951.41;5069594;28;20426;-58
2023/05/08 00:42:15;;;;;;;21.25;16.58;;;;;;;12.98;100.00;163959.53;5071039;28;20024;-58
2023/05/08 00:44:40;;;;;;;18.77;16.20;;;;;;;12.90;100.00;163936.53;5068913;28;20466;-59
2023/05/08 00:47:07;;;;;;;16.92;15.23;;;;;;;12.93;100.00;163945.97;5070659;28;20032;-58
2023/05/08 00:49:34;;;;;;;18.42;16.58;;;;;;;12.87;100.00;163929.78;5069382;28;20051;-59
2023/05/08 00:52:01;;;;;;;20.35;17.90;;;;;;;12.90;100.00;163937.91;5071036;28;20079;-58
2023/05/08 00:54:27;;;;;;;19.25;17.25;;;;;;;12.90;100.00;163937.91;5069003;28;20438;-58
2023/05/08 00:56:54;;;;;;;21.40;17.83;;;;;;;12.88;100.00;163932.47;5070856;28;20167;-59
2023/05/08 00:59:20;;;;;;;18.70;16.73;;;;;;;12.82;100.00;163916.28;5069019;28;20118;-58
2023/05/08 01:01:47;;;;;;;20.00;18.10;;;;;;;12.85;100.00;163924.34;5071216;28;20060;-58
2023/05/08 01:04:13;;;;;;;19.23;17.42;;;;;;;12.83;100.00;163920.31;5069317;28;20032;-58
2023/05/08 01:06:38;;;;;;;21.63;19.38;;;;;;;12.78;100.00;163905.44;5070188;28;20467;-58
2023/05/08 01:09:04;;;;;;;19.83;17.80;;;;;;;12.74;100.00;163895.97;5069313;28;20040;-58
2023/05/08 01:11:48;;;;;;;32.08;19.27;;;;;;;12.74;100.00;163894.63;5070665;28;20016;-58
2023/05/08 01:14:19;;;;;;;19.58;17.58;;;;;;;12.72;100.00;163889.22;5069084;28;20087;-58
2023/05/08 01:17:10;;;;;;;22.13;19.77;;;;;;;12.67;100.00;163877.03;5070616;28;20115;-58
2023/05/08 01:19:59;;;;;;;25.17;18.25;;;;;;;12.63;100.00;163867.59;5068847;28;20052;-58
2023/05/08 01:22:52;;;;;;;20.67;18.58;;;;;;;12.61;100.00;163862.22;5069781;28;20046;-58
2023/05/08 01:25:45;;;;;;;21.20;18.15;;;;;;;12.59;100.00;163855.41;5069103;28;20490;-58
2023/05/08 01:28:28;;;;;;;21.90;19.73;;;;;;;12.58;100.00;163854.09;5070168;28;20023;-58
2023/05/08 01:31:06;;;;;;;21.15;18.92;;;;;;;12.57;100.00;163850.03;5069251;28;20044;-58
2023/05/08 01:33:37;;;;;;;21.13;19.02;;;;;;;12.52;100.00;163837.88;5070398;28;20429;-58
2023/05/08 01:36:22;;;;;;;18.65;16.90;;;;;;;12.50;100.00;163832.47;5068522;28;20592;-58
2023/05/08 01:39:10;;;;;;;21.85;19.63;;;;;;;12.49;100.00;163829.75;5068998;28;20035;-58
2023/05/08 01:41:38;;;;;;;20.42;18.30;;;;;;;12.45;100.00;163818.97;5066405;28;20068;-58
2023/05/08 01:44:14;;;;;;;24.37;21.80;;;;;;;12.42;100.00;163810.84;5068726;28;20036;-58
2023/05/08 01:46:43;;;;;;;20.27;18.38;;;;;;;12.38;100.00;163801.38;5070868;28;20028;-58
2023/05/08 01:49:16;;;;;;;21.70;19.35;;;;;;;12.35;100.00;163793.28;5068450;28;20086;-58
2023/05/08 01:51:47;;;;;;;20.65;18.27;;;;;;;12.35;100.00;163794.63;5069938;28;20031;-59
2023/05/08 01:54:22;;;;;;;21.77;18.77;;;;;;;12.35;100.00;163794.63;5068921;28;20040;-59
2023/05/08 01:56:50;;;;;;;22.45;19.90;;;;;;;12.33;100.00;163789.22;5070367;28;20020;-60
2023/05/08 01:59:19;;;;;;;20.83;18.65;;;;;;;12.32;100.00;163786.50;5068602;28;20498;-59
2023/05/08 02:01:46;;;;;;;21.98;19.70;;;;;;;12.30;100.00;163781.13;5074210;28;20021;-60
2023/05/08 02:04:14;;;;;;;21.23;19.15;;;;;;;12.28;100.00;163774.38;5072537;28;20082;-59
2023/05/08 02:06:39;;;;;;;19.83;17.83;;;;;;;12.28;100.00;163775.72;5073458;28;20028;-59
2023/05/08 02:09:08;;;;;;;24.67;20.38;;;;;;;12.25;100.00;163766.25;5072677;28;20037;-59
2023/05/08 02:11:35;;;;;;;21.05;18.95;;;;;;;12.16;100.00;163743.31;5073428;28;20016;-58
2023/05/08 02:14:01;;;;;;;21.05;18.98;;;;;;;12.18;100.00;163748.66;5072353;28;20032;-60
2023/05/08 02:16:28;;;;;;;21.52;19.42;;;;;;;12.14;100.00;163737.88;5073698;28;20063;-59
2023/05/08 02:18:57;;;;;;;22.13;19.85;;;;;;;12.12;100.00;163733.84;5072660;28;20025;-59
2023/05/08 02:21:22;;;;;;;;;;;;;;;12.11;100.00;163731.13;5073244;28;20028;-59
2023/05/08 02:23:49;;;;;;;23.25;19.92;;;;;;;12.09;100.00;163725.72;5072166;28;19958;-59
2023/05/08 02:26:15;;;;;;;22.48;20.08;;;;;;;12.02;100.00;163706.81;5073733;28;20375;-59
2023/05/08 02:28:42;;;;;;;23.50;21.13;;;;;;;12.05;100.00;163716.25;5071887;28;20032;-58
2023/05/08 02:31:11;;;;;;;22.23;20.00;;;;;;;12.04;100.00;163713.56;5073701;28;20027;-58
2023/05/08 02:33:42;;;;;;;21.75;19.65;;;;;;;11.99;100.00;163700.06;5072134;28;20024;-58
2023/05/08 02:36:11;;;;;;;20.23;18.05;;;;;;;11.95;100.00;163689.16;5072975;28;20048;-58
2023/05/08 02:38:40;;;;;;;21.30;18.85;;;;;;;11.90;100.00;163677.06;5071671;28;20103;-56
2023/05/08 02:41:07;;;;;;;22.67;20.08;;;;;;;11.88;100.00;163671.63;5073545;28;20435;-59
2023/05/08 02:43:33;;;;;;;24.08;19.67;;;;;;;11.85;100.00;163663.50;5072671;28;20067;-59
2023/05/08 02:46:18;;;;;;;21.08;19.00;;;;;;;11.81;100.00;163651.34;5071797;28;20045;-59
2023/05/08 02:49:08;;;;;;;21.83;19.52;;;;;;;11.77;100.00;163640.56;5071759;28;20027;-59
2023/05/08 02:52:10;;;;;;;21.20;19.00;;;;;;;11.73;100.00;163632.44;5072940;28;20035;-60
2023/05/08 02:54:43;;;;;;;21.58;19.08;;;;;;;11.69;100.00;163621.66;5071486;28;20044;-58
2023/05/08 02:57:20;;;;;;;20.08;18.13;;;;;;;11.64;100.00;163608.16;5072723;28;20479;-58
2023/05/08 02:59:56;;;;;;;21.52;19.30;;;;;;;11.62;100.00;163602.75;5071496;28;20056;-58
2023/05/08 03:02:36;;;;;;;23.90;21.23;;;;;;;11.57;100.00;163589.25;5072978;28;20055;-58
2023/05/08 03:05:07;;;;;;;21.35;19.30;;;;;;;11.45;100.00;163558.19;5070588;28;20047;-58
2023/05/08 03:07:37;;;;;;;22.10;19.90;;;;;;;11.45;100.00;163558.19;5072867;28;20025;-58
2023/05/08 03:10:06;;;;;;;22.45;20.25;;;;;;;11.40;100.00;163546.03;5071149;28;20032;-59
2023/05/08 03:12:38;;;;;;;24.25;21.85;;;;;;;11.34;100.00;163529.84;5072461;28;20040;-58
2023/05/08 03:15:26;;;;;;;22.42;20.17;;;;;;;11.31;100.00;163520.38;5071319;28;20415;-59
2023/05/08 03:17:56;;;;;;;23.95;21.75;;;;;;;11.27;100.00;163510.94;5072518;28;20105;-59
2023/05/08 03:20:25;;;;;;;21.42;19.15;;;;;;;11.26;100.00;163509.56;5070591;28;20036;-58
2023/05/08 03:22:53;;;;;;;23.92;21.40;;;;;;;11.25;100.00;163505.50;5072093;28;20090;-59
2023/05/08 03:25:20;;;;;;;25.15;22.30;;;;;;;11.19;100.00;163489.31;5071032;28;20044;-60
2023/05/08 03:27:47;;;;;;;23.02;20.67;;;;;;;11.21;100.00;163496.06;5072088;28;20025;-58
2023/05/08 03:30:14;;;;;;;16.93;15.10;;;;;;;11.20;100.00;163492.03;5071027;28;20036;-58
2023/05/08 03:32:43;;;;;;;25.80;22.95;;;;;;;11.19;100.00;163489.31;5072205;28;20210;-58
2023/05/08 03:35:09;;;;;;;22.17;19.73;;;;;;;11.18;100.00;163486.59;5063607;28;20044;-58
2023/05/08 03:37:35;;;;;;;25.98;23.40;;;;;;;11.19;100.00;163489.31;5071904;28;20028;-58
2023/05/08 03:40:00;;;;;;;22.90;20.48;;;;;;;11.17;100.00;163483.91;5070915;28;20040;-58
2023/05/08 03:42:26;;;;;;;24.08;21.55;;;;;;;11.14;100.00;163475.78;5071749;28;20529;-58
2023/05/08 03:44:52;;;;;;;22.60;20.38;;;;;;;11.15;100.00;163478.47;5070577;28;20032;-58
2023/05/08 03:47:19;;;;;;;23.23;21.02;;;;;;;11.16;100.00;163482.56;5072440;28;20094;-58
2023/05/08 03:49:45;;;;;;;22.58;20.05;;;;;;;11.17;100.00;163483.91;5070028;28;20040;-59
2023/05/08 03:52:12;;;;;;;22.77;20.48;;;;;;;11.22;100.00;163497.38;5071667;28;20020;-58
2023/05/08 03:54:37;;;;;;;23.88;21.58;;;;;;;11.23;100.00;163500.09;5070311;28;20064;-58
2023/05/08 03:57:03;;;;;;;23.60;19.83;;;;;;;11.20;100.00;163492.03;5071571;28;20024;-58
2023/05/08 03:59:43;;;;;;;22.05;19.83;;;;;;;11.25;100.00;163506.84;5070147;28;20089;-59
2023/05/08 04:02:18;;;;;;;25.77;23.23;;;;;;;11.26;100.00;163508.22;5071787;28;20107;-59
2023/05/08 04:04:46;;;;;;;22.17;19.67;;;;;;;11.29;100.00;163516.28;5069694;28;20557;-59
2023/05/08 04:07:31;;;;;;;27.77;22.88;;;;;;;11.31;100.00;163521.72;5066757;28;20017;-59
2023/05/08 04:10:15;;;;;;;21.48;19.30;;;;;;;11.32;100.00;163524.41;5065712;28;20615;-59
2023/05/08 04:13:05;;;;;;;21.67;19.48;;;;;;;11.35;100.00;163532.53;5063702;28;20053;-58
2023/05/08 04:15:34;;;;;;;21.42;19.15;;;;;;;11.39;100.00;163542.00;5066292;28;20113;-58
2023/05/08 04:18:03;;;;;;;;;;;;;;;11.40;100.00;163546.03;5056396;28;20029;-59
2023/05/08 04:20:31;;;;;;;20.98;18.75;;;;;;;11.43;100.00;163554.09;5064557;28;20434;-58
2023/05/08 04:22:57;;;;;;;19.83;17.80;;;;;;;11.42;100.00;163551.44;5070510;28;20048;-59
2023/05/08 04:25:23;;;;;;;19.30;17.17;;;;;;;11.42;100.00;163551.44;5068383;28;20222;-58
2023/05/08 04:27:50;;;;;;;18.80;16.88;;;;;;;11.45;100.00;163558.19;5054214;28;20021;-58
2023/05/08 04:30:16;;;;;;;20.30;18.25;;;;;;;11.49;100.00;163567.63;5049723;28;20093;-58
2023/05/08 04:32:42;;;;;;;18.52;16.70;;;;;;;11.48;100.00;163566.25;5050889;28;20021;-58
2023/05/08 04:35:07;;;;;;;20.88;16.67;;;;;;;11.55;100.00;163583.84;5056399;28;20056;-59
2023/05/08 04:37:33;;;;;;;21.02;16.48;;;;;;;11.54;100.00;163582.47;5070680;28;20037;-58
2023/05/08 04:39:59;;;;;;;17.80;16.10;;;;;;;11.56;100.00;163586.53;5068826;28;20036;-58
2023/05/08 04:42:25;;;;;;;16.77;15.13;;;;;;;11.59;100.00;163594.63;5070802;28;20052;-58
2023/05/08 04:44:51;;;;;;;16.88;15.38;;;;;;;11.60;100.00;163597.31;5069687;28;20414;-58
2023/05/08 04:47:16;;;;;;;19.55;17.58;;;;;;;11.56;100.00;163586.53;5070889;28;20032;-58
2023/05/08 04:49:42;;;;;;;16.95;15.35;;;;;;;11.56;100.00;163586.53;5069096;28;20041;-58
2023/05/08 04:52:07;;;;;;;15.15;13.80;;;;;;;11.53;100.00;163578.41;5071073;28;20021;-58
2023/05/08 04:54:33;;;;;;;17.13;15.57;;;;;;;11.60;100.00;163597.31;5069240;28;20082;-60
2023/05/08 04:56:58;;;;;;;18.92;15.50;;;;;;;11.62;100.00;163602.75;5070512;28;20544;-60
2023/05/08 04:59:24;;;;;;;17.55;15.68;;;;;;;11.62;100.00;163601.38;5069184;28;20028;-58
2023/05/08 05:01:50;;;;;;;16.90;15.27;;;;;;;11.65;100.00;163609.50;5071035;28;20032;-58
2023/05/08 05:04:15;;;;;;;16.67;14.95;;;;;;;11.64;100.00;163608.16;5069076;28;20510;-59
2023/05/08 05:06:40;;;;;;;16.90;15.27;;;;;;;11.71;100.00;163625.69;5070542;28;20016;-58
2023/05/08 05:09:06;;;;;;;16.40;14.73;;;;;;;11.70;100.00;163624.38;5069436;28;20167;-58
2023/05/08 05:11:32;;;;;;;15.80;14.30;;;;;;;11.72;100.00;163628.41;5070471;28;20074;-58
2023/05/08 05:13:57;;;;;;;17.10;15.45;;;;;;;11.71;100.00;163627.06;5069410;28;20045;-58
2023/05/08 05:16:22;;;;;;;16.08;13.05;;;;;;;11.75;100.00;163636.53;5070503;28;20031;-59
2023/05/08 05:18:48;;;;;;;16.60;13.98;;;;;;;11.79;100.00;163645.97;5068942;28;20593;-58
2023/05/08 05:21:13;;;;;;;15.57;13.95;;;;;;;11.81;100.00;163651.34;5070892;28;20016;-58
2023/05/08 05:23:38;;;;;;;14.55;13.15;;;;;;;11.84;100.00;163659.47;5068804;28;20028;-58
2023/05/08 05:26:04;;;;;;;16.98;15.27;;;;;;;11.87;100.00;163667.59;5070276;28;20017;-58
2023/05/08 05:28:29;;;;;;;20.20;15.68;;;;;;;11.93;100.00;163683.81;5070441;28;20498;-58
2023/05/08 05:30:55;;;;;;;14.70;13.40;;;;;;;11.98;100.00;163697.34;5069101;28;20402;-58
2023/05/08 05:33:20;;;;;;;14.23;12.90;;;;;;;12.00;100.00;163702.75;5068926;28;20079;-58
2023/05/08 05:35:46;;;;;;;17.52;13.73;;;;;;;12.03;100.00;163709.50;5073147;28;20036;-58
2023/05/08 05:38:11;;;;;;;15.90;14.30;;;;;;;12.05;100.00;163714.94;5074558;28;20066;-58
2023/05/08 05:40:36;;;;;;;14.98;13.40;;;;;;;12.03;100.00;163710.84;5071958;28;20518;-58
2023/05/08 05:43:02;;;;;;;15.38;13.88;;;;;;;12.03;100.00;163710.84;5074377;28;20026;-59
2023/05/08 05:45:27;;;;;;;16.17;12.13;;;;;;;12.04;100.00;163712.22;5072678;28;20036;-58
2023/05/08 05:47:52;;;;;;;17.60;15.70;;;;;;;12.00;100.00;163702.75;5074017;28;20032;-59
2023/05/08 05:50:18;;;;;;;16.35;14.77;;;;;;;11.91;100.00;163678.38;5072896;28;20624;-58
2023/05/08 05:52:44;;;;;;;15.77;13.55;;;;;;;11.97;100.00;163693.31;5074045;28;20103;-58
2023/05/08 05:55:10;;;;;;;16.23;12.43;;;;;;;11.96;100.00;163691.88;5072515;28;20044;-58
2023/05/08 05:57:35;;;;;;;17.02;14.55;;;;;;;11.93;100.00;163683.81;5074126;28;20020;-58
2023/05/08 06:00:01;;;;;;;16.65;15.05;;;;;;;11.90;100.00;163675.69;5072747;28;20507;-57
2023/05/08 06:02:26;;;;;;;14.63;13.07;;;;;;;11.86;100.00;163664.91;5073325;28;20410;-58
2023/05/08 06:04:51;;;;;;;20.02;14.38;;;;;;;11.78;100.00;163643.28;5072406;28;20043;-58
2023/05/08 06:07:17;;;;;;;19.48;14.60;;;;;;;11.81;100.00;163651.34;5068626;28;20033;-57
2023/05/08 06:09:42;;;;;;;19.00;15.93;;;;;;;11.91;100.00;163678.38;5055677;28;20045;-58
2023/05/08 06:12:08;;;;;;;14.85;13.40;;;;;;;12.05;100.00;163716.25;5057517;28;20028;-58
2023/05/08 06:14:33;;;;;;;22.35;14.32;;;;;;;12.12;100.00;163733.84;5060242;28;20041;-58
2023/05/08 06:16:58;;;;;;;15.23;13.43;;;;;;;12.16;100.00;163743.31;5072902;28;20027;-58
2023/05/08 06:19:24;;;;;;;14.40;12.90;;;;;;;12.22;100.00;163759.50;5071985;28;20044;-57
2023/05/08 06:21:50;;;;;;;17.90;14.95;;;;;;;12.40;100.00;163805.47;5073699;28;20016;-58
2023/05/08 06:24:15;;;;;;;17.02;15.30;;;;;;;12.62;100.00;163864.88;5071675;28;20044;-58
2023/05/08 06:26:41;;;;;;;15.20;13.70;;;;;;;12.87;100.00;163929.78;5060830;28;20039;-58
2023/05/08 06:29:06;;;;;;;14.60;13.20;;;;;;;13.04;100.00;163974.38;5052058;28;20044;-58
2023/05/08 06:31:31;;;;;;;17.58;14.80;;;;;;;13.27;100.00;164035.22;5052856;28;20422;-58
2023/05/08 06:33:57;;;;;;;14.43;12.68;;;;;;;13.41;100.00;164070.44;5052051;28;20104;-58
2023/05/08 06:36:22;;;;;;;14.93;13.45;;;;;;;13.54;100.00;164105.56;5053187;28;20078;-58
2023/05/08 06:38:47;;;;;;;12.75;11.55;;;;;;;13.57;100.00;164113.72;5051687;28;20021;-58
2023/05/08 06:41:13;;;;;;;22.25;13.27;;;;;;;13.60;100.00;164121.78;5053093;28;20079;-58
2023/05/08 06:43:38;;;;;;;14.70;13.18;;;;;;;13.62;100.00;164127.22;5061191;28;20040;-58
2023/05/08 06:46:03;;;;;;;14.80;13.18;;;;;;;13.82;100.00;164178.59;5072190;28;20051;-58
2023/05/08 06:48:29;;;;;;;13.70;11.05;;;;;;;14.05;100.00;164238.09;5072850;28;20020;-58
2023/05/08 06:50:55;;;;;;;13.27;11.98;;;;;;;14.34;100.00;164313.84;5071724;28;20090;-58
2023/05/08 06:53:20;;;;;;;15.10;12.10;;;;;;;14.84;100.00;164446.53;5072557;28;20371;-58
2023/05/08 06:55:45;;;;;;;12.35;11.15;;;;;;;-146.58;100.00;69501.63;5071499;28;20048;-58
2023/05/08 06:58:11;;;;;;;12.35;11.13;;;;;;;15.14;100.00;164525.03;5073047;28;20021;-58
2023/05/08 07:00:36;;;;;;;14.32;10.65;;;;;;;15.17;100.00;164533.13;5071166;28;20072;-58
2023/05/08 07:03:02;;;;;;;12.30;11.10;;;;;;;15.20;100.00;164539.88;5072839;28;20028;-58
2023/05/08 07:05:27;;;;;;;12.20;11.00;;;;;;;15.15;100.00;164527.72;5071128;28;20036;-58
2023/05/08 07:07:53;;;;;;;13.55;12.15;;;;;;;15.42;100.00;164598.13;5073027;28;20044;-58
2023/05/08 07:10:21;;;;;;;21.60;11.90;;;;;;;15.49;100.00;164617.06;5070972;28;20044;-58
2023/05/08 07:12:47;;;;;;;11.73;10.55;;;;;;;-146.58;100.00;69501.63;5072745;28;20035;-58
2023/05/08 07:15:12;;;;;;;13.45;12.20;;;;;;;16.10;100.00;164775.53;5071306;28;20037;-58
2023/05/08 07:17:38;;;;;;;18.80;11.00;;;;;;;16.61;100.00;164909.63;5072162;28;20020;-58
2023/05/08 07:20:04;;;;;;;13.10;11.63;;;;;;;17.18;100.00;165058.69;5071342;28;20376;-58
2023/05/08 07:22:29;;;;;;;14.35;11.90;;;;;;;-146.58;100.00;69501.63;5072671;28;20487;-58
2023/05/08 07:24:54;;;;;;;13.25;11.50;;;;;;;-146.58;100.00;69501.63;5070628;28;20406;-59
2023/05/08 07:27:20;;;;;;;11.75;10.55;;;;;;;18.48;100.00;165401.72;5072440;28;20031;-59
2023/05/08 07:29:45;;;;;;;13.18;10.15;;;;;;;18.05;100.00;165287.81;5070839;28;20036;-59
2023/05/08 07:32:11;;;;;;;13.75;11.10;;;;;;;18.24;100.00;165338.00;5072071;28;20028;-59
2023/05/08 07:34:36;;;;;;;12.10;11.10;;;;;;;18.20;100.00;165328.50;5070941;28;20041;-59
2023/05/08 07:37:02;;;;;;;12.05;10.88;;;;;;;18.27;100.00;165346.16;5072253;28;20107;-59
2023/05/08 07:39:28;;;;;;;14.07;11.43;;;;;;;18.24;100.00;165338.00;5070196;28;20036;-58
2023/05/08 07:41:53;;;;;;;14.88;13.23;;;;;;;18.01;100.00;165278.34;5072193;28;20035;-58
2023/05/08 07:44:18;;;;;;;13.27;11.68;;;;;;;18.12;100.00;165305.47;5055328;28;20090;-59
2023/05/08 07:46:44;;;;;;;14.00;12.27;;;;;;;18.22;100.00;165332.56;5051502;28;20029;-59
2023/05/08 07:49:09;;;;;;;16.83;12.48;;;;;;;18.37;100.00;165373.22;5050928;28;20037;-59
2023/05/08 07:51:35;;;;;;;11.40;10.27;;;;;;;18.50;100.00;165407.16;5051702;28;20622;-59
2023/05/08 07:54:00;;;;;;;12.57;11.27;;;;;;;18.47;100.00;165397.66;5050208;28;20040;-58
2023/05/08 07:56:27;;;;;;;14.20;12.80;;;;;;;18.64;100.00;165443.78;5051740;28;20032;-59
2023/05/08 07:58:52;;;;;;;16.65;12.07;;;;;;;18.57;100.00;165423.41;5050618;28;20028;-59
2023/05/08 08:01:18;;;;;;;14.50;13.07;;;;;;;18.70;100.00;165460.03;5051385;28;20411;-59
2023/05/08 08:03:46;;;;;;;10.82;9.82;;;;;;;18.70;100.00;165460.03;5050136;28;20020;-58
2023/05/08 08:06:12;;;;;;;14.10;12.70;;;;;;;18.49;100.00;165403.09;5051802;28;20051;-59
2023/05/08 08:08:38;;;;;;;10.75;9.75;;;;;;;18.57;100.00;165424.78;5049810;28;20484;-59
2023/05/08 08:11:03;;;;;;;16.77;13.23;;;;;;;18.73;100.00;165465.47;5051661;28;20483;-58
2023/05/08 08:13:29;;;;;;;21.67;12.77;;;;;;;19.12;100.00;165568.59;5051242;28;20032;-59
2023/05/08 08:15:54;;;;;;;14.32;11.35;;;;;;;19.38;100.00;165637.78;5052380;28;20036;-59
2023/05/08 08:18:19;;;;;;;15.52;12.57;;;;;;;19.61;100.00;165698.84;5071174;28;20035;-59
2023/05/08 08:20:45;;;;;;;12.30;10.75;;;;;;;19.92;100.00;165780.28;5069719;28;20033;-59
2023/05/08 08:23:10;;;;;;;12.30;11.00;;;;;;;20.13;100.00;165834.59;5070940;28;20039;-59
2023/05/08 08:25:35;;;;;;;13.98;11.38;;;;;;;19.84;100.00;165758.63;5069324;28;20044;-59
2023/05/08 08:28:01;;;;;;;13.52;12.18;;;;;;;19.64;100.00;165706.97;5071133;28;20518;-59
2023/05/08 08:30:26;;;;;;;13.63;12.10;;;;;;;20.00;100.00;165799.28;5069466;28;20040;-59
2023/05/08 08:32:51;;;;;;;14.85;13.40;;;;;;;20.31;100.00;165880.72;5071140;28;20028;-59
2023/05/08 08:35:17;;;;;;;14.52;12.93;;;;;;;20.67;100.00;165977.13;5069853;28;20546;-59
2023/05/08 08:37:42;;;;;;;14.10;12.70;;;;;;;21.09;100.00;166087.16;5070654;28;20028;-59
2023/05/08 08:40:08;;;;;;;18.10;13.05;;;;;;;21.53;100.00;166203.94;5069769;28;20403;-59
2023/05/08 08:42:33;;;;;;;17.27;13.90;;;;;;;21.55;100.00;166208.00;5070997;28;20017;-59
2023/05/08 08:44:59;;;;;;;19.25;14.50;;;;;;;21.90;100.00;166299.09;5069484;28;20041;-59
2023/05/08 08:47:33;;;;;;;14.38;12.27;;;;;;;22.03;100.00;166334.38;5070730;28;20028;-59
2023/05/08 08:50:01;;;;;;;21.92;13.50;;;;;;;22.05;100.00;166339.84;5069532;28;20048;-59
2023/05/08 08:52:54;;;;;;;13.75;12.32;;;;;;;21.99;100.00;166323.53;5070833;28;20028;-59
2023/05/08 08:55:22;;;;;;;15.88;13.95;;;;;;;21.91;100.00;166301.81;5069473;28;20045;-59
2023/05/08 08:57:53;;;;;;;15.70;13.25;;;;;;;21.79;100.00;166271.91;5071249;28;20443;-59
2023/05/08 09:00:21;;;;;;;15.32;13.70;;;;;;;22.02;100.00;166331.66;5069039;28;20580;-59
2023/05/08 09:02:46;;;;;;;16.95;13.88;;;;;;;22.11;100.00;166356.13;5071153;28;20036;-59
2023/05/08 09:05:12;;;;;;;17.77;15.00;;;;;;;21.75;100.00;166259.66;5069233;28;20565;-59
2023/05/08 09:07:38;;;;;;;19.15;14.27;;;;;;;21.60;100.00;166221.63;5070315;28;20024;-59
2023/05/08 09:10:05;;;;;;;15.43;13.32;;;;;;;21.09;100.00;166087.16;5068920;28;20064;-59
2023/05/08 09:12:30;;;;;;;15.30;13.82;;;;;;;21.22;100.00;166122.47;5070649;28;20021;-59
2023/05/08 09:14:55;;;;;;;17.65;15.75;;;;;;;20.91;100.00;166039.63;5062984;28;20562;-59
2023/05/08 09:17:21;;;;;;;15.93;13.70;;;;;;;20.45;100.00;165918.72;5028674;28;20025;-59
2023/05/08 09:19:48;;;;;;;18.08;14.63;;;;;;;20.43;100.00;165913.34;5039308;28;20047;-59
2023/05/08 09:22:14;;;;;;;18.85;16.00;;;;;;;20.40;100.00;165905.16;5050436;28;20025;-58
2023/05/08 09:24:57;;;;;;;16.90;15.02;;;;;;;20.32;100.00;165883.44;5048463;28;20099;-58
2023/05/08 09:27:25;;;;;;;18.88;15.27;;;;;;;20.27;100.00;165871.22;5050435;28;20149;-59
2023/05/08 09:30:03;;;;;;;18.00;13.13;;;;;;;20.34;100.00;165890.22;5048949;28;20114;-58
2023/05/08 09:32:29;;;;;;;16.50;14.75;;;;;;;20.58;100.00;165952.69;5050483;28;20021;-59
2023/05/08 09:34:55;;;;;;;16.20;14.38;;;;;;;20.86;100.00;166027.41;5049197;28;20064;-59
2023/05/08 09:37:20;;;;;;;17.58;13.82;;;;;;;21.32;100.00;166148.25;5050145;28;20028;-59
2023/05/08 09:39:46;;;;;;;18.70;15.68;;;;;;;21.58;100.00;166214.84;5048918;28;20404;-59
2023/05/08 09:42:12;;;;;;;16.25;14.55;;;;;;;21.71;100.00;166250.16;5050572;28;20043;-58
2023/05/08 09:44:46;;;;;;;17.58;15.10;;;;;;;21.79;100.00;166270.56;5050915;28;20365;-58
2023/05/08 09:47:16;;;;;;;16.73;15.13;;;;;;;21.98;100.00;166320.81;5070395;28;20048;-58
2023/05/08 09:50:07;;;;;;;19.05;15.23;;;;;;;22.15;100.00;166366.97;5068774;28;20029;-59
2023/05/08 09:52:34;;;;;;;21.08;14.88;;;;;;;22.52;100.00;166462.19;5070140;28;20052;-59
2023/05/08 09:55:02;;;;;;;17.33;15.50;;;;;;;22.68;100.00;166505.63;5069018;28;20395;-58
2023/05/08 09:57:30;;;;;;;17.02;15.27;;;;;;;22.45;100.00;166445.84;5070091;28;20024;-59
2023/05/08 10:00:07;;;;;;;19.83;17.83;;;;;;;22.58;100.00;166479.81;5068404;28;20503;-58
2023/05/08 10:02:33;;;;;;;19.10;17.20;;;;;;;22.63;100.00;166492.06;5070313;28;20039;-59
2023/05/08 10:04:58;;;;;;;21.80;19.80;;;;;;;22.79;100.00;166535.56;5068697;28;20044;-58
2023/05/08 10:07:31;;;;;;;21.55;19.33;;;;;;;23.14;100.00;166626.63;5069533;28;20020;-59
2023/05/08 10:10:02;;;;;;;22.10;19.92;;;;;;;23.40;100.00;166696.00;5068644;28;20066;-58
2023/05/08 10:12:29;;;;;;;22.00;19.80;;;;;;;23.74;100.00;166784.38;5069683;28;20025;-58
2023/05/08 10:14:55;;;;;;;21.35;19.20;;;;;;;23.99;100.00;166849.69;5068724;28;20094;-58
2023/05/08 10:17:26;;;;;;;19.80;17.63;;;;;;;24.19;100.00;166902.72;5070481;28;20028;-58
2023/05/08 10:19:58;;;;;;;16.85;15.10;;;;;;;24.15;100.00;166891.88;5068663;28;20036;-59
2023/05/08 10:22:25;;;;;;;18.02;16.23;;;;;;;24.04;100.00;166864.66;5072970;28;20375;-58
2023/05/08 10:24:55;;;;;;;18.67;16.65;;;;;;;23.75;100.00;166787.13;5072446;28;20044;-58
2023/05/08 10:27:46;;;;;;;18.63;16.88;;;;;;;23.72;100.00;166778.94;5073357;28;20029;-59
2023/05/08 10:30:13;;;;;;;19.73;17.75;;;;;;;23.20;100.00;166643.00;5068566;28;20036;-59
2023/05/08 10:32:42;;;;;;;19.27;17.00;;;;;;;22.66;100.00;166500.25;5073128;28;20141;-59
2023/05/08 10:35:09;;;;;;;20.02;17.92;;;;;;;22.45;100.00;166445.84;5072146;28;20116;-59
2023/05/08 10:37:36;;;;;;;18.63;16.88;;;;;;;22.15;100.00;166366.97;5072969;28;20047;-58
2023/05/08 10:40:04;;;;;;;25.33;18.33;;;;;;;22.40;100.00;166430.94;5072018;28;20045;-59
2023/05/08 10:42:29;;;;;;;21.65;19.35;;;;;;;22.56;100.00;166473.03;5072954;28;20078;-59
2023/05/08 10:44:55;;;;;;;21.08;19.00;;;;;;;22.62;100.00;166490.72;5071468;28;20036;-58
2023/05/08 10:47:49;;;;;;;20.00;18.05;;;;;;;22.57;100.00;166475.75;5073164;28;20024;-59
2023/05/08 10:50:40;;;;;;;22.60;20.30;;;;;;;22.52;100.00;166462.19;5062971;28;20559;-59
2023/05/08 10:53:39;;;;;;;20.70;18.60;;;;;;;22.68;100.00;166505.63;5073243;28;20020;-58
2023/05/08 10:56:05;;;;;;;17.98;16.05;;;;;;;22.81;100.00;166539.63;5048690;28;20055;-58
2023/05/08 10:58:33;;;;;;;18.55;15.93;;;;;;;22.90;100.00;166564.09;5072646;28;20025;-58
2023/05/08 11:00:58;;;;;;;20.70;16.60;;;;;;;22.90;100.00;166562.72;5071566;28;20414;-59
2023/05/08 11:03:25;;;;;;;18.35;16.55;;;;;;;22.75;100.00;166524.66;5073073;28;20028;-59
2023/05/08 11:05:52;;;;;;;16.90;15.27;;;;;;;22.54;100.00;166467.59;5071053;28;20047;-58
2023/05/08 11:08:26;;;;;;;16.77;15.17;;;;;;;22.33;100.00;166413.19;5073103;28;20016;-59